地図

経路データ

SID SEASON NUMBER BASIN SUBBASIN NAME ISO_TIME NATURE LAT LON WMO_WIND WMO_PRES WMO_AGENCY TRACK_TYPE DIST2LAND LANDFALL IFLAG USA_AGENCY USA_ATCF_ID USA_LAT USA_LON USA_RECORD USA_STATUS USA_WIND USA_PRES USA_SSHS USA_R34_NE USA_R34_SE USA_R34_SW USA_R34_NW USA_R50_NE USA_R50_SE USA_R50_SW USA_R50_NW USA_R64_NE USA_R64_SE USA_R64_SW USA_R64_NW USA_POCI USA_ROCI USA_RMW USA_EYE TOKYO_LAT TOKYO_LON TOKYO_GRADE TOKYO_WIND TOKYO_PRES TOKYO_R50_DIR TOKYO_R50_LONG TOKYO_R50_SHORT TOKYO_R30_DIR TOKYO_R30_LONG TOKYO_R30_SHORT TOKYO_LAND CMA_LAT CMA_LON CMA_CAT CMA_WIND CMA_PRES HKO_LAT HKO_LON HKO_CAT HKO_WIND HKO_PRES NEWDELHI_LAT NEWDELHI_LON NEWDELHI_GRADE NEWDELHI_WIND NEWDELHI_PRES NEWDELHI_CI NEWDELHI_DP NEWDELHI_POCI REUNION_LAT REUNION_LON REUNION_TYPE REUNION_WIND REUNION_PRES REUNION_TNUM REUNION_CI REUNION_RMW REUNION_R34_NE REUNION_R34_SE REUNION_R34_SW REUNION_R34_NW REUNION_R50_NE REUNION_R50_SE REUNION_R50_SW REUNION_R50_NW REUNION_R64_NE REUNION_R64_SE REUNION_R64_SW REUNION_R64_NW BOM_LAT BOM_LON BOM_TYPE BOM_WIND BOM_PRES BOM_TNUM BOM_CI BOM_RMW BOM_R34_NE BOM_R34_SE BOM_R34_SW BOM_R34_NW BOM_R50_NE BOM_R50_SE BOM_R50_SW BOM_R50_NW BOM_R64_NE BOM_R64_SE BOM_R64_SW BOM_R64_NW BOM_ROCI BOM_POCI BOM_EYE BOM_POS_METHOD BOM_PRES_METHOD NADI_LAT NADI_LON NADI_CAT NADI_WIND NADI_PRES WELLINGTON_LAT WELLINGTON_LON WELLINGTON_WIND WELLINGTON_PRES DS824_LAT DS824_LON DS824_STAGE DS824_WIND DS824_PRES TD9636_LAT TD9636_LON TD9636_STAGE TD9636_WIND TD9636_PRES TD9635_LAT TD9635_LON TD9635_WIND TD9635_PRES TD9635_ROCI NEUMANN_LAT NEUMANN_LON NEUMANN_CLASS NEUMANN_WIND NEUMANN_PRES MLC_LAT MLC_LON MLC_CLASS MLC_WIND MLC_PRES USA_GUST BOM_GUST BOM_GUST_PER REUNION_GUST REUNION_GUST_PER USA_SEAHGT USA_SEARAD_NE USA_SEARAD_SE USA_SEARAD_SW USA_SEARAD_NW STORM_SPEED STORM_DIR
1921277N11097 1921 52 NI BB NOT_NAMED 1921-10-04 00:00:00 TS 10.6000 96.5000 main 218 218 _________O____ -1 10.6000 96.5000 TC 64 8 274
1921277N11097 1921 52 NI BB NOT_NAMED 1921-10-04 03:00:00 TS 10.6268 96.1017 main 262 262 _________PO___ -1 10.6402 95.9025 TC 64 10.6000 96.5000 4 10 275
1921277N11097 1921 52 NI BB NOT_NAMED 1921-10-04 06:00:00 TS 10.6885 95.5326 main 328 328 _________OP___ -1 10.7000 95.3000 TC 64 10.6713 95.8815 4 12 277
1921277N11097 1921 52 NI BB NOT_NAMED 1921-10-04 09:00:00 TS 10.7715 94.9401 main 394 394 _________PP___ -1 10.7924 94.6925 TC 64 10.7436 95.2702 4 11 279
1921277N11097 1921 52 NI BB NOT_NAMED 1921-10-04 12:00:00 TS 10.8596 94.3869 main 449 449 _________OP___ -1 10.9000 94.1000 TC 64 10.8191 94.6739 4 11 279
1921277N11097 1921 52 NI BB NOT_NAMED 1921-10-04 15:00:00 TS 10.9499 93.8175 main 514 514 _________PO___ -1 10.9999 93.5350 TC 64 10.9000 94.1000 4 11 280
1921277N11097 1921 52 NI BB NOT_NAMED 1921-10-04 18:00:00 TS 11.0441 93.2767 main 550 542 _________OP___ -1 11.1000 93.0000 TC 64 10.9883 93.5534 4 11 280
1921277N11097 1921 52 NI BB NOT_NAMED 1921-10-04 21:00:00 TS 11.1384 92.7599 main 553 546 _________PP___ -1 11.1924 92.4924 TC 64 11.0844 93.0274 4 10 281
1921277N11097 1921 52 NI BB NOT_NAMED 1921-10-05 00:00:00 TS 11.2442 92.2563 main 562 557 _________OP___ -1 11.3000 92.0000 TC 64 11.1883 92.5127 4 10 283
1921277N11097 1921 52 NI BB NOT_NAMED 1921-10-05 03:00:00 TS 11.3749 91.7538 main 567 567 _________PO___ -1 11.4499 91.5075 TC 64 11.3000 92.0000 4 10 285
1921277N11097 1921 52 NI BB NOT_NAMED 1921-10-05 06:00:00 TS 11.5109 91.2294 main 592 592 _________OP___ -1 11.6000 91.0000 TC 64 11.4218 91.4588 4 11 284
1921277N11097 1921 52 NI BB NOT_NAMED 1921-10-05 09:00:00 TS 11.6287 90.6813 main 617 615 _________PP___ -1 11.7075 90.4425 TC 64 11.5499 90.9201 4 11 282
1921277N11097 1921 52 NI BB NOT_NAMED 1921-10-05 12:00:00 TS 11.7390 90.1482 main 653 645 _________OP___ -1 11.8000 89.9000 TC 64 11.6781 90.3963 4 10 283
1921277N11097 1921 52 NI BB NOT_NAMED 1921-10-05 15:00:00 TS 11.8499 89.6637 main 676 676 _________PO___ -1 11.8999 89.4275 TC 64 11.8000 89.9000 4 9 283
1921277N11097 1921 52 NI BB NOT_NAMED 1921-10-05 18:00:00 TS 11.9492 89.2351 main 708 701 _________OP___ -1 12.0000 89.0000 TC 64 11.8984 89.4702 4 8 283
1921277N11097 1921 52 NI BB NOT_NAMED 1921-10-05 21:00:00 TS 12.0419 88.8434 main 734 728 _________PP___ -1 12.0923 88.6224 TC 64 11.9915 89.0644 4 8 284
1921277N11097 1921 52 NI BB NOT_NAMED 1921-10-06 00:00:00 TS 12.1445 88.4257 main 763 756 _________OP___ -1 12.2000 88.2000 TC 64 12.0889 88.6514 4 9 284
1921277N11097 1921 52 NI BB NOT_NAMED 1921-10-06 03:00:00 TS 12.2713 87.9113 main 771 722 _________PO___ -1 12.3426 87.6225 TC 64 12.2000 88.2000 4 11 284
1921277N11097 1921 52 NI BB NOT_NAMED 1921-10-06 06:00:00 TS 12.4200 87.3240 main 714 659 _________OP___ -1 12.5000 87.0000 TC 64 12.3400 87.6480 4 12 285
1921277N11097 1921 52 NI BB NOT_NAMED 1921-10-06 09:00:00 TS 12.5752 86.7426 main 651 605 _________PP___ -1 12.6574 86.4275 TC 64 12.4930 87.0578 4 12 285
1921277N11097 1921 52 NI BB NOT_NAMED 1921-10-06 12:00:00 TS 12.7247 86.1818 main 605 561 _________OP___ -1 12.8000 85.9000 TC 64 12.6494 86.4636 4 11 285
1921277N11097 1921 52 NI BB NOT_NAMED 1921-10-06 15:00:00 TS 12.8499 85.6674 main 561 509 _________PO___ -1 12.8998 85.4349 TC 64 12.8000 85.9000 4 10 284
1921277N11097 1921 52 NI BB NOT_NAMED 1921-10-06 18:00:00 TS 12.9658 85.2109 main 509 475 _________OP___ -1 13.0000 85.0000 TC 64 12.9315 85.4219 4 9 286
1921277N11097 1921 52 NI BB NOT_NAMED 1921-10-06 21:00:00 TS 13.0995 84.7673 main 475 433 _________PP___ -1 13.1424 84.5575 TC 64 13.0566 84.9771 4 9 288
1921277N11097 1921 52 NI BB NOT_NAMED 1921-10-07 00:00:00 TS 13.2392 84.3219 main 433 389 _________OP___ -1 13.3000 84.1000 TC 64 13.1784 84.5438 4 9 287
1921277N11097 1921 52 NI BB NOT_NAMED 1921-10-07 03:00:00 TS 13.3787 83.8537 main 389 335 _________PO___ -1 13.4574 83.6075 TC 64 13.3000 84.1000 4 10 286
1921277N11097 1921 52 NI BB NOT_NAMED 1921-10-07 06:00:00 TS 13.5123 83.3652 main 335 281 _________OP___ -1 13.6000 83.1000 TC 64 13.4246 83.6304 4 10 285
1921277N11097 1921 52 NI BB NOT_NAMED 1921-10-07 09:00:00 TS 13.6246 82.8797 main 281 226 _________PP___ -1 13.6998 82.6148 TC 64 13.5494 83.1447 4 10 283
1921277N11097 1921 52 NI BB NOT_NAMED 1921-10-07 12:00:00 TS 13.7372 82.3683 main 226 162 _________OP___ -1 13.8000 82.1000 TC 64 13.6745 82.6366 4 11 284
1921277N11097 1921 52 NI BB NOT_NAMED 1921-10-07 15:00:00 TS 13.8750 81.8075 main 162 99 _________PO___ -1 13.9500 81.5151 TC 55 13.8000 82.1000 4 12 284
1921277N11097 1921 52 NI BB NOT_NAMED 1921-10-07 18:00:00 TS 14.0126 81.2062 main 99 46 _________OP___ -1 14.1000 80.9000 TC 47 13.9252 81.5125 4 12 282
1921277N11097 1921 52 NI BB NOT_NAMED 1921-10-07 21:00:00 TS 14.1251 80.5924 main 46 0 _________PP___ -1 14.2000 80.2849 TC 38 14.0502 80.8999 4 12 281
1921277N11097 1921 52 NI BB NOT_NAMED 1921-10-08 00:00:00 TS 14.2376 79.9937 main 0 0 _________OP___ -1 14.3000 79.7000 TC 30 14.1752 80.2874 4 11 283
1921277N11097 1921 52 NI BB NOT_NAMED 1921-10-08 03:00:00 TS 14.3749 79.4425 main 0 0 _________PO___ -1 14.4498 79.1850 TC 30 14.3000 79.7000 1 11 285
1921277N11097 1921 52 NI BB NOT_NAMED 1921-10-08 06:00:00 TS 14.5163 78.9336 main 0 0 _________OP___ -1 14.6000 78.7000 TC 30 14.4325 79.1671 1 10 285
1921277N11097 1921 52 NI BB NOT_NAMED 1921-10-08 09:00:00 TS 14.6358 78.4274 main 0 0 _________PP___ -1 14.7074 78.1924 TC 30 14.5643 78.6625 1 10 283
1921277N11097 1921 52 NI AS NOT_NAMED 1921-10-08 12:00:00 TS 14.7444 77.9383 main 0 0 _________OP___ -1 14.8000 77.7000 TC 30 14.6889 78.1765 1 9 283
1921277N11097 1921 52 NI AS NOT_NAMED 1921-10-08 15:00:00 TS 14.8537 77.4750 main 0 0 _________PO___ -1 14.9073 77.2500 TC 30 14.8000 77.7000 1 9 282
1921277N11097 1921 52 NI AS NOT_NAMED 1921-10-08 18:00:00 TS 14.9382 77.0208 main 0 0 _________OP___ -1 15.0000 76.8000 TC 30 14.8764 77.2416 1 9 279
1921277N11097 1921 52 NI AS NOT_NAMED 1921-10-08 21:00:00 TS 14.9919 76.5545 main 0 0 _________PP___ -1 15.0423 76.3223 TC 30 14.9414 76.7866 1 9 277
1921277N11097 1921 52 NI AS NOT_NAMED 1921-10-09 00:00:00 TS 15.0554 76.0567 main 0 0 _________OP___ -1 15.1000 75.8000 TC 30 15.0107 76.3134 1 10 280
1921277N11097 1921 52 NI AS NOT_NAMED 1921-10-09 03:00:00 TS 15.1674 75.5113 main 0 0 _________PO___ -1 15.2349 75.2225 TC 30 15.1000 75.8000 1 11 283
1921277N11097 1921 52 NI AS NOT_NAMED 1921-10-09 06:00:00 TS 15.3204 74.9052 main 0 0 _________OP___ -1 15.4000 74.6000 TC 30 15.2408 75.2104 1 12 284
1921277N11097 1921 52 NI AS NOT_NAMED 1921-10-09 09:00:00 TS 15.4789 74.2616 main 0 0 _________PP___ -1 15.5575 73.9425 TC 30 15.4002 74.5806 1 13 284
1921277N11097 1921 52 NI AS NOT_NAMED 1921-10-09 12:00:00 TS 15.6297 73.6177 main 10 10 _________OP___ -1 15.7000 73.3000 TC 30 15.5595 73.9354 1 12 283
1921277N11097 1921 52 NI AS NOT_NAMED 1921-10-09 15:00:00 TS 15.7573 73.0212 main 63 63 _________PO___ -1 15.8147 72.7424 TC 38 15.7000 73.3000 1 11 281
1921277N11097 1921 52 NI AS NOT_NAMED 1921-10-09 18:00:00 TS 15.8522 72.4471 main 117 117 _________OP___ -1 15.9000 72.2000 TC 47 15.8043 72.6942 1 11 279
1921277N11097 1921 52 NI AS NOT_NAMED 1921-10-09 21:00:00 TS 15.9260 71.8486 main 173 173 _________PP___ -1 15.9650 71.5925 TC 55 15.8871 72.1048 1 11 276
1921277N11097 1921 52 NI AS NOT_NAMED 1921-10-10 00:00:00 TS 15.9756 71.2690 main 220 220 _________OP___ -1 16.0000 71.0000 TC 64 15.9513 71.5380 1 11 274
1921277N11097 1921 52 NI AS NOT_NAMED 1921-10-10 03:00:00 TS 15.9999 70.7387 main 283 283 _________PO___ -1 15.9998 70.4774 TC 64 16.0000 71.0000 4 10 272
1921277N11097 1921 52 NI AS NOT_NAMED 1921-10-10 06:00:00 TS 16.0174 70.2439 main 335 335 _________OP___ -1 16.0000 70.0000 TC 64 16.0348 70.4879 4 9 273
1921277N11097 1921 52 NI AS NOT_NAMED 1921-10-10 09:00:00 TS 16.0496 69.7736 main 377 377 _________PP___ -1 16.0424 69.5425 TC 64 16.0568 70.0047 4 9 275
1921277N11097 1921 52 NI AS NOT_NAMED 1921-10-10 12:00:00 TS 16.0878 69.3221 main 429 429 _________OP___ -1 16.1000 69.1000 TC 64 16.0755 69.5441 4 9 275
1921277N11097 1921 52 NI AS NOT_NAMED 1921-10-10 15:00:00 TS 16.1250 68.8712 main 471 471 _________PO___ -1 16.1500 68.6425 TC 64 16.1000 69.1000 4 9 275
1921277N11097 1921 52 NI AS NOT_NAMED 1921-10-10 18:00:00 TS 16.1691 68.4364 main 524 524 _________OP___ -1 16.2000 68.2000 TC 64 16.1382 68.6727 4 8 277
1921277N11097 1921 52 NI AS NOT_NAMED 1921-10-10 21:00:00 TS 16.2170 68.0324 main 564 564 _________PP___ -1 16.2498 67.8075 TC 64 16.1842 68.2573 4 8 277
1921277N11097 1921 52 NI AS NOT_NAMED 1921-10-11 00:00:00 TS 16.2691 67.6191 main 596 596 _________OP___ -1 16.3000 67.4000 TC 64 16.2381 67.8383 4 8 277
1921277N11097 1921 52 NI AS NOT_NAMED 1921-10-11 03:00:00 TS 16.3212 67.1575 main 621 621 _________PO___ -1 16.3425 66.9149 TC 64 16.3000 67.4000 4 9 277
1921277N11097 1921 52 NI AS NOT_NAMED 1921-10-11 06:00:00 TS 16.3838 66.6628 main 642 642 _________OP___ -1 16.4000 66.4000 TC 64 16.3676 66.9256 4 10 279
1921277N11097 1921 52 NI AS NOT_NAMED 1921-10-11 09:00:00 TS 16.4710 66.1687 main 664 664 _________PP___ -1 16.4998 65.9076 TC 64 16.4422 66.4299 4 10 280
1921277N11097 1921 52 NI AS NOT_NAMED 1921-10-11 12:00:00 TS 16.5603 65.6597 main 691 691 _________OP___ -1 16.6000 65.4000 TC 64 16.5207 65.9193 4 10 279
1921277N11097 1921 52 NI AS NOT_NAMED 1921-10-11 15:00:00 TS 16.6250 65.1249 main 735 735 _________PO___ -1 16.6500 64.8499 TC 64 16.6000 65.4000 4 10 277
1921277N11097 1921 52 NI AS NOT_NAMED 1921-10-11 18:00:00 TS 16.6853 64.5930 main 764 710 _________OP___ -1 16.7000 64.3000 TC 64 16.6706 64.8860 4 10 278
1921277N11097 1921 52 NI AS NOT_NAMED 1921-10-11 21:00:00 TS 16.7671 64.0823 main 710 657 _________PP___ -1 16.7923 63.8000 TC 64 16.7420 64.3647 4 10 280
1921277N11097 1921 52 NI AS NOT_NAMED 1921-10-12 00:00:00 TS 16.8587 63.5680 main 657 607 _________OP___ -1 16.9000 63.3000 TC 64 16.8174 63.8360 4 10 280
1921277N11097 1921 52 NI AS NOT_NAMED 1921-10-12 03:00:00 TS 16.9500 63.0287 main 598 545 _________PO___ -1 16.9999 62.7575 TC 64 16.9000 63.3000 4 11 280
1921277N11097 1921 52 NI AS NOT_NAMED 1921-10-12 06:00:00 TS 17.0462 62.4786 main 545 492 _________OP___ -1 17.1000 62.2000 TC 64 16.9925 62.7571 4 11 281
1921277N11097 1921 52 NI AS NOT_NAMED 1921-10-12 09:00:00 TS 17.1459 61.9287 main 482 430 _________PP___ -1 17.1999 61.6499 TC 64 17.0920 62.2074 4 11 281
1921277N11097 1921 52 NI AS NOT_NAMED 1921-10-12 12:00:00 TS 17.2478 61.3770 main 430 378 _________OP___ -1 17.3000 61.1000 TC 64 17.1956 61.6540 4 11 281
1921277N11097 1921 52 NI AS NOT_NAMED 1921-10-12 15:00:00 TS 17.3499 60.8250 main 369 319 _________PO___ -1 17.3998 60.5499 TC 64 17.3000 61.1000 4 10 281
1921277N11097 1921 52 NI AS NOT_NAMED 1921-10-12 18:00:00 TS 17.4445 60.3132 main 319 269 _________OP___ -1 17.5000 60.0000 TC 64 17.4028 60.5481 4 10 281
1921277N11097 1921 52 NI AS NOT_NAMED 1921-10-12 21:00:00 TS 17.5423 59.7788 main 269 222 _________PP___ -1 17.6003 59.4501 TC 64 17.5036 59.9980 4 10 281
1921277N11097 1921 52 NI AS NOT_NAMED 1921-10-13 00:00:00 TS 17.6351 59.2659 main 222 186 _________OP___ -1 17.7000 58.9000 TC 64 17.6027 59.4489 4 9 281
1921277N11097 1921 52 NI AS NOT_NAMED 1921-10-13 03:00:00 NR 17.7000 58.9000 main 186 __________O___ -1 TC 17.7000 58.9000 4 7 281

IBTrACS Databaseについて

本データベースは、米国NOAAが公開する1842年以降の世界の熱帯低気圧のベストトラックデータアーカイブInternational Best Track Archive for Climate Stewardship (IBTrACS)を、ウェブで閲覧しやすい形式に変換したものです。

最終更新日:2021-10-08